createdAt,value
2023-05-02T00:00:02.539Z,13.78
2023-05-02T00:02:30.511Z,13.85
2023-05-02T00:04:58.074Z,13.99
2023-05-02T00:07:25.954Z,13.93
2023-05-02T00:09:54.686Z,13.77
2023-05-02T00:12:22.429Z,13.73
2023-05-02T00:14:49.704Z,13.59
2023-05-02T00:17:17.873Z,13.34
2023-05-02T00:19:45.483Z,13.35
2023-05-02T00:22:13.311Z,13.13
2023-05-02T00:24:40.672Z,13.07
2023-05-02T00:27:09.776Z,13.08
2023-05-02T00:29:37.266Z,13.00
2023-05-02T00:32:06.433Z,13.11
2023-05-02T00:34:33.960Z,13.10
2023-05-02T00:37:01.719Z,12.93
2023-05-02T00:39:29.118Z,12.86
2023-05-02T00:41:57.465Z,12.94
2023-05-02T00:44:26.205Z,12.84
2023-05-02T00:46:54.892Z,12.64
2023-05-02T00:49:22.482Z,12.43
2023-05-02T00:51:50.292Z,11.99
2023-05-02T00:54:17.760Z,12.05
2023-05-02T00:56:45.461Z,12.21
2023-05-02T00:59:13.827Z,12.14
2023-05-02T01:01:53.573Z,12.18
2023-05-02T01:04:32.238Z,12.15
2023-05-02T01:07:19.399Z,12.14
2023-05-02T01:09:57.603Z,12.27
2023-05-02T01:12:28.396Z,12.24
2023-05-02T01:14:58.698Z,12.29
2023-05-02T01:17:30.997Z,12.51
2023-05-02T01:20:02.667Z,12.27
2023-05-02T01:22:32.445Z,12.23
2023-05-02T01:25:07.577Z,12.46
2023-05-02T01:27:43.608Z,12.46
2023-05-02T01:30:15.004Z,12.44
2023-05-02T01:32:45.678Z,12.36
2023-05-02T01:35:16.660Z,12.47
2023-05-02T01:37:45.670Z,12.42
2023-05-02T01:40:17.222Z,12.40
2023-05-02T01:42:46.212Z,12.46
2023-05-02T01:45:16.518Z,12.40
2023-05-02T01:47:46.157Z,12.28
2023-05-02T01:50:19.152Z,12.42
2023-05-02T01:52:49.114Z,12.19
2023-05-02T01:55:17.999Z,12.24
2023-05-02T01:58:31.361Z,12.29
2023-05-02T02:01:01.676Z,12.39
2023-05-02T02:03:31.236Z,12.41
2023-05-02T02:06:01.242Z,12.45
2023-05-02T02:08:28.979Z,12.32
2023-05-02T02:11:00.514Z,12.37
2023-05-02T02:13:32.771Z,12.33
2023-05-02T02:16:04.813Z,12.31
2023-05-02T02:18:37.031Z,12.36
2023-05-02T02:21:07.826Z,12.21
2023-05-02T02:23:38.459Z,12.06
2023-05-02T02:26:08.269Z,12.11
2023-05-02T02:28:36.377Z,12.10
2023-05-02T02:31:05.280Z,12.19
2023-05-02T02:33:33.058Z,12.39
2023-05-02T02:36:08.366Z,12.47
2023-05-02T02:38:42.503Z,12.59
2023-05-02T02:41:15.178Z,12.71
2023-05-02T02:43:52.382Z,12.87
2023-05-02T02:46:34.750Z,12.95
2023-05-02T02:49:15.263Z,13.03
2023-05-02T02:51:49.505Z,13.09
2023-05-02T02:54:26.912Z,13.11
2023-05-02T02:57:01.456Z,13.17
2023-05-02T02:59:32.383Z,13.19
2023-05-02T03:02:06.918Z,13.14
2023-05-02T03:04:38.121Z,13.16
2023-05-02T03:07:05.742Z,13.03
2023-05-02T03:09:43.132Z,13.00
2023-05-02T03:12:10.996Z,12.85
2023-05-02T03:14:39.426Z,12.80
2023-05-02T03:17:08.590Z,12.86
2023-05-02T03:19:36.272Z,12.92
2023-05-02T03:22:03.751Z,12.99
2023-05-02T03:24:31.440Z,13.02
2023-05-02T03:26:59.291Z,13.13
2023-05-02T03:29:27.102Z,13.20
2023-05-02T03:31:54.588Z,13.21
2023-05-02T03:34:23.784Z,13.21
2023-05-02T03:36:51.011Z,13.36
2023-05-02T03:39:18.694Z,13.41
2023-05-02T03:41:46.030Z,13.36
2023-05-02T03:44:14.089Z,13.27
2023-05-02T03:46:41.465Z,13.37
2023-05-02T03:49:09.317Z,13.38
2023-05-02T03:51:38.064Z,13.30
2023-05-02T03:54:05.731Z,13.31
2023-05-02T03:56:33.000Z,13.21
2023-05-02T03:59:00.749Z,13.15
2023-05-02T04:01:28.258Z,13.27
2023-05-02T04:03:55.980Z,13.31
2023-05-02T04:06:23.940Z,13.36
2023-05-02T04:08:53.135Z,13.44
2023-05-02T04:11:20.532Z,13.43
2023-05-02T04:13:48.302Z,13.27
2023-05-02T04:16:15.606Z,13.26
2023-05-02T04:18:43.399Z,13.37
2023-05-02T04:21:10.789Z,13.41
2023-05-02T04:23:38.525Z,13.33
2023-05-02T04:26:07.302Z,13.23
2023-05-02T04:28:35.685Z,13.24
2023-05-02T04:31:03.318Z,13.37
2023-05-02T04:33:31.164Z,13.63
2023-05-02T04:35:58.472Z,13.85
2023-05-02T04:38:26.192Z,13.98
2023-05-02T04:40:53.833Z,14.02
2023-05-02T04:43:24.543Z,14.17
2023-05-02T04:45:52.373Z,14.27
2023-05-02T04:48:20.098Z,14.24
2023-05-02T04:50:47.484Z,14.03
2023-05-02T04:53:15.147Z,14.09
2023-05-02T04:55:42.481Z,14.16
2023-05-02T04:58:10.186Z,14.01
2023-05-02T05:00:39.070Z,13.99
2023-05-02T05:03:07.061Z,14.15
2023-05-02T05:05:34.506Z,14.24
2023-05-02T05:08:02.255Z,14.25
2023-05-02T05:10:30.398Z,14.19
2023-05-02T05:12:58.218Z,13.89
2023-05-02T05:15:25.650Z,13.67
2023-05-02T05:17:54.940Z,13.37
2023-05-02T05:20:22.432Z,13.54
2023-05-02T05:22:50.246Z,13.57
2023-05-02T05:25:17.719Z,13.59
2023-05-02T05:27:45.485Z,13.76
2023-05-02T05:30:12.898Z,13.85
2023-05-02T05:32:40.776Z,13.88
2023-05-02T05:35:10.954Z,14.04
2023-05-02T05:37:38.734Z,14.04
2023-05-02T05:40:07.383Z,13.96
2023-05-02T05:42:35.205Z,13.77
2023-05-02T05:45:02.594Z,13.69
2023-05-02T05:47:30.416Z,13.64
2023-05-02T05:49:58.181Z,13.63
2023-05-02T05:52:27.661Z,13.72
2023-05-02T05:54:55.218Z,13.70
2023-05-02T05:57:23.173Z,13.95
2023-05-02T05:59:50.471Z,14.09
2023-05-02T06:02:18.435Z,14.14
2023-05-02T06:04:45.820Z,14.32
2023-05-02T06:07:14.906Z,14.50
2023-05-02T06:09:43.669Z,14.37
2023-05-02T06:12:11.404Z,14.53
2023-05-02T06:14:38.794Z,14.53
2023-05-02T06:17:06.510Z,14.53
2023-05-02T06:19:33.906Z,14.49
2023-05-02T06:22:01.562Z,14.60
2023-05-02T06:24:28.849Z,14.58
2023-05-02T06:26:58.833Z,14.68
2023-05-02T06:29:26.075Z,14.80
2023-05-02T06:31:56.039Z,15.06
2023-05-02T06:34:23.601Z,15.07
2023-05-02T06:36:54.773Z,15.19
2023-05-02T06:39:22.149Z,15.25
2023-05-02T06:41:49.898Z,15.28
2023-05-02T06:44:18.793Z,15.19
2023-05-02T06:46:46.598Z,15.10
2023-05-02T06:49:14.009Z,15.28
2023-05-02T06:51:41.839Z,15.48
2023-05-02T06:54:09.482Z,15.63
2023-05-02T06:56:37.324Z,15.85
2023-05-02T06:59:04.761Z,15.86
2023-05-02T07:01:34.098Z,15.93
2023-05-02T07:04:01.950Z,16.07
2023-05-02T07:06:29.810Z,16.34
2023-05-02T07:08:57.279Z,16.24
2023-05-02T07:11:25.045Z,16.20
2023-05-02T07:13:52.521Z,15.91
2023-05-02T07:16:23.447Z,16.14
2023-05-02T07:18:52.301Z,16.26
2023-05-02T07:21:20.033Z,16.54
2023-05-02T07:23:47.372Z,16.53
2023-05-02T07:26:15.049Z,16.57
2023-05-02T07:28:42.896Z,16.60
2023-05-02T07:31:10.572Z,16.85
2023-05-02T07:33:38.051Z,17.01
2023-05-02T07:36:07.473Z,17.07
2023-05-02T07:38:34.856Z,17.05
2023-05-02T07:41:02.693Z,17.23
2023-05-02T07:43:30.015Z,17.63
2023-05-02T07:45:58.001Z,17.71
2023-05-02T07:48:27.611Z,18.01
2023-05-02T07:50:55.764Z,18.11
2023-05-02T07:53:24.635Z,18.45
2023-05-02T07:55:52.380Z,18.53
2023-05-02T07:58:19.690Z,18.65
2023-05-02T08:00:47.414Z,18.91
2023-05-02T08:03:15.147Z,18.72
2023-05-02T08:05:43.312Z,18.48
2023-05-02T08:08:10.584Z,18.74
2023-05-02T08:10:39.816Z,18.92
2023-05-02T08:13:07.506Z,18.80
2023-05-02T08:15:35.910Z,18.87
2023-05-02T08:18:03.624Z,18.99
2023-05-02T08:20:31.549Z,19.21
2023-05-02T08:23:00.060Z,19.18
2023-05-02T08:25:28.428Z,19.03
2023-05-02T08:27:57.359Z,18.97
2023-05-02T08:30:25.508Z,19.04
2023-05-02T08:32:52.919Z,19.02
2023-05-02T08:35:21.003Z,19.06
2023-05-02T08:37:48.607Z,19.09
2023-05-02T08:40:24.619Z,18.89
2023-05-02T08:43:03.587Z,18.97
2023-05-02T08:45:35.568Z,19.04
2023-05-02T08:48:06.327Z,19.05
2023-05-02T08:50:36.744Z,18.90
2023-05-02T08:53:05.172Z,18.82
2023-05-02T08:55:34.312Z,19.07
2023-05-02T08:58:03.930Z,19.20
2023-05-02T09:00:33.015Z,19.03
2023-05-02T09:03:07.215Z,19.16
2023-05-02T09:05:40.435Z,19.16
2023-05-02T09:08:08.690Z,19.13
2023-05-02T09:10:36.606Z,19.33
2023-05-02T09:13:32.726Z,19.44
2023-05-02T09:16:02.237Z,19.36
2023-05-02T09:18:31.033Z,19.34
2023-05-02T09:21:00.038Z,19.37
2023-05-02T09:23:35.122Z,19.39
2023-05-02T09:26:10.449Z,19.41
2023-05-02T09:28:41.447Z,19.62
2023-05-02T09:31:10.183Z,19.43
2023-05-02T09:33:39.025Z,19.80
2023-05-02T09:36:08.266Z,19.69
2023-05-02T09:38:35.810Z,19.86
2023-05-02T09:41:03.644Z,19.84
2023-05-02T09:43:32.248Z,19.81
2023-05-02T09:46:03.753Z,19.74
2023-05-02T09:48:33.674Z,19.74
2023-05-02T09:53:44.803Z,19.53
2023-05-02T09:56:12.648Z,19.65
2023-05-02T09:58:40.106Z,19.67
2023-05-02T10:01:15.561Z,19.64
2023-05-02T10:03:47.429Z,19.88
2023-05-02T10:06:16.069Z,20.17
2023-05-02T10:08:43.683Z,20.34
2023-05-02T10:11:13.182Z,20.37
2023-05-02T10:13:41.630Z,20.46
2023-05-02T10:16:12.982Z,20.68
2023-05-02T10:18:46.209Z,20.92
2023-05-02T10:21:17.104Z,20.85
2023-05-02T10:23:45.098Z,20.70
2023-05-02T10:26:15.775Z,20.78
2023-05-02T10:28:43.906Z,20.94
2023-05-02T10:31:13.912Z,21.03
2023-05-02T10:33:42.005Z,21.19
2023-05-02T10:36:11.506Z,21.16
2023-05-02T10:38:39.853Z,21.11
2023-05-02T10:41:12.804Z,21.20
2023-05-02T10:43:42.175Z,21.44
2023-05-02T10:46:33.452Z,21.38
2023-05-02T10:49:02.424Z,21.52
2023-05-02T10:51:30.481Z,21.76
2023-05-02T10:54:19.383Z,22.02
2023-05-02T10:57:07.775Z,21.91
2023-05-02T10:59:39.311Z,21.73
2023-05-02T11:02:46.253Z,21.83
2023-05-02T11:05:13.965Z,21.51
2023-05-02T11:07:41.380Z,21.77
2023-05-02T11:10:28.118Z,21.81
2023-05-02T11:12:56.643Z,21.98
2023-05-02T11:15:56.796Z,21.75
2023-05-02T11:18:25.787Z,21.69
2023-05-02T11:21:25.916Z,21.90
2023-05-02T11:23:53.278Z,22.03
2023-05-02T11:26:21.765Z,22.00
2023-05-02T11:28:49.156Z,22.18
2023-05-02T11:32:02.340Z,21.94
2023-05-02T11:34:41.120Z,22.14
2023-05-02T11:37:13.311Z,22.06
2023-05-02T11:39:40.697Z,21.95
2023-05-02T11:42:08.460Z,21.98
2023-05-02T11:44:55.709Z,22.09
2023-05-02T11:47:24.101Z,22.20
2023-05-02T11:49:55.518Z,22.58
2023-05-02T11:52:23.711Z,22.66
2023-05-02T11:54:54.244Z,22.62
2023-05-02T11:57:22.056Z,22.65
2023-05-02T11:59:50.159Z,22.81
2023-05-02T12:02:17.874Z,22.70
2023-05-02T12:04:45.848Z,22.69
2023-05-02T12:07:15.255Z,22.52
2023-05-02T12:09:52.219Z,22.79
2023-05-02T12:12:20.779Z,22.72
2023-05-02T12:14:48.164Z,22.95
2023-05-02T12:17:16.428Z,23.07
2023-05-02T12:19:44.343Z,23.05
2023-05-02T12:22:12.578Z,22.27
2023-05-02T12:24:41.782Z,22.07
2023-05-02T12:27:10.953Z,21.85
2023-05-02T12:29:39.528Z,21.77
2023-05-02T12:32:07.260Z,21.59
2023-05-02T12:34:35.184Z,21.56
2023-05-02T12:37:03.159Z,21.56
2023-05-02T12:39:37.644Z,21.36
2023-05-02T12:42:14.376Z,21.33
2023-05-02T12:44:42.743Z,20.98
2023-05-02T12:47:12.266Z,21.33
2023-05-02T12:49:49.623Z,21.50
2023-05-02T12:52:17.339Z,21.58
2023-05-02T12:54:46.409Z,21.87
2023-05-02T12:57:25.640Z,22.22
2023-05-02T12:59:53.582Z,22.17
2023-05-02T13:02:21.876Z,22.50
2023-05-02T13:04:49.307Z,22.56
2023-05-02T13:07:16.985Z,22.72
2023-05-02T13:09:44.251Z,22.57
2023-05-02T13:12:12.001Z,22.49
2023-05-02T13:14:40.747Z,22.62
2023-05-02T13:17:08.764Z,22.55
2023-05-02T13:19:37.355Z,22.33
2023-05-02T13:22:06.532Z,22.17
2023-05-02T13:24:33.995Z,22.36
2023-05-02T13:27:01.644Z,22.42
2023-05-02T13:29:28.972Z,22.57
2023-05-02T13:31:58.215Z,22.50
2023-05-02T13:34:25.610Z,22.33
2023-05-02T13:36:53.456Z,22.18
2023-05-02T13:39:20.814Z,21.82
2023-05-02T13:41:48.666Z,21.70
2023-05-02T13:44:16.029Z,21.78
2023-05-02T13:46:43.885Z,21.87
2023-05-02T13:49:12.817Z,21.83
2023-05-02T13:51:40.585Z,21.84
2023-05-02T13:54:07.966Z,21.79
2023-05-02T13:56:35.790Z,21.89
2023-05-02T13:59:04.147Z,21.99
2023-05-02T14:01:33.417Z,22.12
2023-05-02T14:04:00.945Z,21.82
2023-05-02T14:06:30.199Z,21.76
2023-05-02T14:08:57.714Z,21.96
2023-05-02T14:11:25.648Z,22.12
2023-05-02T14:13:53.099Z,22.13
2023-05-02T14:16:20.951Z,22.19
2023-05-02T14:18:48.257Z,22.39
2023-05-02T14:21:16.047Z,22.20
2023-05-02T14:23:44.824Z,22.38
2023-05-02T14:26:12.524Z,22.31
2023-05-02T14:28:40.505Z,22.25
2023-05-02T14:31:08.372Z,22.38
2023-05-02T14:33:35.818Z,22.18
2023-05-02T14:36:03.993Z,22.02
2023-05-02T14:38:31.364Z,21.83
2023-05-02T14:41:00.751Z,21.93
2023-05-02T14:43:28.099Z,21.79
2023-05-02T14:45:56.233Z,21.92
2023-05-02T14:48:23.666Z,21.94
2023-05-02T14:50:51.503Z,21.98
2023-05-02T14:53:19.096Z,21.97
2023-05-02T14:55:46.849Z,22.08
2023-05-02T14:58:15.564Z,22.14
2023-05-02T15:00:43.315Z,22.15
2023-05-02T15:03:10.945Z,22.07
2023-05-02T15:05:38.823Z,22.14
2023-05-02T15:08:06.543Z,22.11
2023-05-02T15:10:37.139Z,21.95
2023-05-02T15:13:04.527Z,21.70
2023-05-02T15:15:33.730Z,21.64
2023-05-02T15:18:01.120Z,21.82
2023-05-02T15:20:29.028Z,21.47
2023-05-02T15:22:56.547Z,21.57
2023-05-02T15:25:24.388Z,21.46
2023-05-02T15:27:51.918Z,21.41
2023-05-02T15:30:21.854Z,21.51
2023-05-02T15:32:52.165Z,21.37
2023-05-02T15:35:20.057Z,21.24
2023-05-02T15:37:47.428Z,21.10
2023-05-02T15:40:15.242Z,21.08
2023-05-02T15:42:42.663Z,20.95
2023-05-02T15:45:12.253Z,20.88
2023-05-02T15:47:39.927Z,20.68
2023-05-02T15:50:10.710Z,20.42
2023-05-02T15:52:38.127Z,20.47
2023-05-02T15:55:06.477Z,20.54
2023-05-02T15:57:33.880Z,20.34
2023-05-02T16:00:01.894Z,20.22
2023-05-02T16:02:29.446Z,20.30
2023-05-02T16:04:57.368Z,20.32
2023-05-02T16:07:26.408Z,20.28
2023-05-02T16:09:54.075Z,20.26
2023-05-02T16:12:21.547Z,20.18
2023-05-02T16:14:49.249Z,20.12
2023-05-02T16:17:16.586Z,20.25
2023-05-02T16:19:44.342Z,20.35
2023-05-02T16:22:11.638Z,20.36
2023-05-02T16:24:40.936Z,20.35
2023-05-02T16:27:08.587Z,20.37
2023-05-02T16:29:36.486Z,20.27
2023-05-02T16:32:03.988Z,20.31
2023-05-02T16:34:31.834Z,20.36
2023-05-02T16:36:59.302Z,20.03
2023-05-02T16:39:27.290Z,20.12
2023-05-02T16:41:56.200Z,19.98
2023-05-02T16:44:23.948Z,19.75
2023-05-02T16:46:51.227Z,19.75
2023-05-02T16:49:19.111Z,19.71
2023-05-02T16:51:46.460Z,19.43
2023-05-02T16:54:14.367Z,19.19
2023-05-02T16:56:42.620Z,19.05
2023-05-02T16:59:12.266Z,18.70
2023-05-02T17:01:39.727Z,18.56
2023-05-02T17:04:07.533Z,18.64
2023-05-02T17:06:35.010Z,18.70
2023-05-02T17:09:02.859Z,18.57
2023-05-02T17:11:30.163Z,18.52
2023-05-02T17:13:57.960Z,18.52
2023-05-02T17:16:26.871Z,18.60
2023-05-02T17:18:54.762Z,18.74
2023-05-02T17:21:22.419Z,18.71
2023-05-02T17:23:50.201Z,18.98
2023-05-02T17:26:17.739Z,18.90
2023-05-02T17:28:45.359Z,18.87
2023-05-02T17:31:12.916Z,18.78
2023-05-02T17:33:42.528Z,18.53
2023-05-02T17:36:10.105Z,18.56
2023-05-02T17:38:37.952Z,18.44
2023-05-02T17:41:05.519Z,18.41
2023-05-02T17:43:33.427Z,18.32
2023-05-02T17:46:06.386Z,18.39
2023-05-02T17:48:34.184Z,18.31
2023-05-02T17:51:03.482Z,18.08
2023-05-02T17:53:31.392Z,18.00
2023-05-02T17:56:01.765Z,17.95
2023-05-02T17:58:29.541Z,17.73
2023-05-02T18:00:57.096Z,17.55
2023-05-02T18:03:25.035Z,17.42
2023-05-02T18:05:52.519Z,17.40
2023-05-02T18:08:21.708Z,17.43
2023-05-02T18:10:49.100Z,17.35
2023-05-02T18:13:17.310Z,17.37
2023-05-02T18:15:44.650Z,17.38
2023-05-02T18:18:12.541Z,17.35
2023-05-02T18:20:39.962Z,17.46
2023-05-02T18:23:07.722Z,17.37
2023-05-02T18:25:36.416Z,17.24
2023-05-02T18:28:04.394Z,17.12
2023-05-02T18:30:31.898Z,16.97
2023-05-02T18:32:59.699Z,17.04
2023-05-02T18:35:27.418Z,16.75
2023-05-02T18:37:55.138Z,16.62
2023-05-02T18:40:22.681Z,16.72
2023-05-02T18:42:51.832Z,16.55
2023-05-02T18:45:19.197Z,16.63
2023-05-02T18:47:47.290Z,16.67
2023-05-02T18:50:14.771Z,16.62
2023-05-02T18:52:42.596Z,16.62
2023-05-02T18:55:10.019Z,16.44
2023-05-02T18:57:37.634Z,16.42
2023-05-02T19:00:07.912Z,16.43
2023-05-02T19:02:35.944Z,16.38
2023-05-02T19:05:05.862Z,16.36
2023-05-02T19:07:33.636Z,16.38
2023-05-02T19:10:01.690Z,16.33
2023-05-02T19:12:29.570Z,16.26
2023-05-02T19:14:56.982Z,16.01
2023-05-02T19:17:26.202Z,15.86
2023-05-02T19:19:54.764Z,15.80
2023-05-02T19:22:23.848Z,15.78
2023-05-02T19:24:51.192Z,15.79
2023-05-02T19:27:19.109Z,15.69
2023-05-02T19:29:46.642Z,15.59
2023-05-02T19:32:15.101Z,15.50
2023-05-02T19:34:43.800Z,15.39
2023-05-02T19:37:11.638Z,15.35
2023-05-02T19:39:39.085Z,15.38
2023-05-02T19:42:06.932Z,15.42
2023-05-02T19:44:34.371Z,15.38
2023-05-02T19:47:02.022Z,15.20
2023-05-02T19:49:29.578Z,15.12
2023-05-02T19:51:59.012Z,15.12
2023-05-02T19:54:26.534Z,15.00
2023-05-02T19:56:54.375Z,15.00
2023-05-02T19:59:21.813Z,15.03
2023-05-02T20:01:50.121Z,15.04
2023-05-02T20:04:17.555Z,15.15
2023-05-02T20:06:45.350Z,15.15
2023-05-02T20:09:14.270Z,15.02
2023-05-02T20:11:42.114Z,14.97
2023-05-02T20:14:09.706Z,14.99
2023-05-02T20:16:37.687Z,14.99
2023-05-02T20:19:05.152Z,14.96
2023-05-02T20:21:33.032Z,15.11
2023-05-02T20:24:00.433Z,15.18
2023-05-02T20:26:29.865Z,15.15
2023-05-02T20:28:57.565Z,15.16
2023-05-02T20:31:25.591Z,14.97
2023-05-02T20:33:53.109Z,14.92
2023-05-02T20:36:21.222Z,14.82
2023-05-02T20:38:48.662Z,14.83
2023-05-02T20:41:16.476Z,14.73
2023-05-02T20:43:45.452Z,14.66
2023-05-02T20:46:14.617Z,14.63
2023-05-02T20:48:42.330Z,14.54
2023-05-02T20:51:10.187Z,14.42
2023-05-02T20:53:37.645Z,14.37
2023-05-02T20:56:06.017Z,14.30
2023-05-02T20:58:33.570Z,14.43
2023-05-02T21:01:03.018Z,14.43
2023-05-02T21:03:30.540Z,14.22
2023-05-02T21:05:58.667Z,14.32
2023-05-02T21:08:25.989Z,14.41
2023-05-02T21:10:54.040Z,14.46
2023-05-02T21:13:22.156Z,14.36
2023-05-02T21:15:50.280Z,14.28
2023-05-02T21:18:20.239Z,14.29
2023-05-02T21:20:48.582Z,14.26
2023-05-02T21:23:16.039Z,14.17
2023-05-02T21:25:43.957Z,14.16
2023-05-02T21:28:11.629Z,14.25
2023-05-02T21:30:39.373Z,14.09
2023-05-02T21:33:06.808Z,14.23
2023-05-02T21:35:36.039Z,14.08
2023-05-02T21:38:03.574Z,14.00
2023-05-02T21:40:31.332Z,13.93
2023-05-02T21:42:58.910Z,13.79
2023-05-02T21:45:26.719Z,13.88
2023-05-02T21:47:54.283Z,13.94
2023-05-02T21:50:22.596Z,14.02
2023-05-02T21:52:51.696Z,14.02
2023-05-02T21:55:19.698Z,14.03
2023-05-02T21:57:47.109Z,14.10
2023-05-02T22:00:15.332Z,13.96
2023-05-02T22:02:43.042Z,13.90
2023-05-02T22:05:11.090Z,13.85
2023-05-02T22:07:38.596Z,13.66
2023-05-02T22:10:09.390Z,13.72
2023-05-02T22:12:36.765Z,13.61
2023-05-02T22:15:07.124Z,13.50
2023-05-02T22:17:34.665Z,13.44
2023-05-02T22:20:03.424Z,13.30
2023-05-02T22:22:30.924Z,13.35
2023-05-02T22:25:01.782Z,13.32
2023-05-02T22:27:30.530Z,13.10
2023-05-02T22:29:58.282Z,13.00
2023-05-02T22:32:25.611Z,13.04
2023-05-02T22:34:53.543Z,12.87
2023-05-02T22:37:21.082Z,13.00
2023-05-02T22:39:48.795Z,12.92
2023-05-02T22:42:16.128Z,12.82
2023-05-02T22:47:18.377Z,12.95
2023-05-02T22:49:46.367Z,12.88
2023-05-02T22:52:13.730Z,12.97
2023-05-02T22:54:41.656Z,12.68
2023-05-02T22:57:09.008Z,12.42
2023-05-02T22:59:36.875Z,12.36
2023-05-02T23:02:06.047Z,12.35
2023-05-02T23:04:33.904Z,12.36
2023-05-02T23:07:01.406Z,12.18
2023-05-02T23:09:29.171Z,12.17
2023-05-02T23:11:56.601Z,12.13
2023-05-02T23:14:24.572Z,12.17
2023-05-02T23:16:52.131Z,12.08
2023-05-02T23:19:21.404Z,12.02
2023-05-02T23:21:48.778Z,12.05
2023-05-02T23:24:16.684Z,12.03
2023-05-02T23:26:44.046Z,11.96
2023-05-02T23:29:11.995Z,12.10
2023-05-02T23:31:39.632Z,12.14
2023-05-02T23:34:07.621Z,11.99
2023-05-02T23:36:36.612Z,12.05
2023-05-02T23:39:04.687Z,11.96
2023-05-02T23:41:32.327Z,11.96
2023-05-02T23:44:00.137Z,11.94
2023-05-02T23:46:27.580Z,12.05
2023-05-02T23:48:55.547Z,11.92
2023-05-02T23:51:22.859Z,11.86
2023-05-02T23:53:52.174Z,11.98
2023-05-02T23:56:19.589Z,12.02
2023-05-02T23:58:47.405Z,12.02
